createdAt,value
2023-02-05T00:01:18.247Z,103336.56
2023-02-05T00:04:04.925Z,103324.00
2023-02-05T00:06:51.549Z,103331.63
2023-02-05T00:09:40.905Z,103325.38
2023-02-05T00:12:28.017Z,103321.72
2023-02-05T00:15:14.504Z,103336.25
2023-02-05T00:18:02.447Z,103323.53
2023-02-05T00:20:48.729Z,103324.53
2023-02-05T00:23:36.212Z,103309.13
2023-02-05T00:26:22.813Z,103301.94
2023-02-05T00:29:09.445Z,103295.75
2023-02-05T00:31:56.397Z,103290.50
2023-02-05T00:34:45.157Z,103295.19
2023-02-05T00:37:32.193Z,103307.28
2023-02-05T00:40:19.461Z,103306.09
2023-02-05T00:43:06.193Z,103305.44
2023-02-05T00:45:53.266Z,103310.38
2023-02-05T00:48:41.208Z,103303.19
2023-02-05T00:51:29.783Z,103297.16
2023-02-05T00:54:16.170Z,103298.41
2023-02-05T00:57:02.849Z,103296.03
2023-02-05T00:59:49.170Z,103292.38
2023-02-05T01:02:36.166Z,103302.72
2023-02-05T01:05:23.660Z,103319.03
2023-02-05T01:08:14.149Z,103297.38
2023-02-05T01:11:01.279Z,103307.66
2023-02-05T01:13:48.467Z,103311.59
2023-02-05T01:16:35.072Z,103314.66
2023-02-05T01:19:21.949Z,103304.22
2023-02-05T01:22:11.248Z,103306.41
2023-02-05T01:24:59.448Z,103320.13
2023-02-05T01:27:46.112Z,103325.31
2023-02-05T01:30:34.040Z,103308.88
2023-02-05T01:33:21.094Z,103318.59
2023-02-05T01:36:07.800Z,103319.91
2023-02-05T01:38:54.441Z,103318.69
2023-02-05T01:41:44.562Z,103324.28
2023-02-05T01:44:32.283Z,103330.72
2023-02-05T01:47:19.173Z,103328.28
2023-02-05T01:50:06.048Z,103328.69
2023-02-05T01:52:53.566Z,103339.50
2023-02-05T01:55:44.851Z,103326.72
2023-02-05T01:58:37.001Z,103325.84
2023-02-05T02:01:24.270Z,103311.47
2023-02-05T02:04:15.558Z,103307.19
2023-02-05T02:07:02.709Z,103300.19
2023-02-05T02:09:50.568Z,103296.34
2023-02-05T02:12:39.300Z,103284.59
2023-02-05T02:15:29.350Z,103282.97
2023-02-05T02:18:28.041Z,103293.31
2023-02-05T02:21:41.629Z,103283.38
2023-02-05T02:25:01.859Z,103283.97
2023-02-05T02:27:54.897Z,103269.50
2023-02-05T02:30:44.991Z,103258.13
2023-02-05T02:33:37.509Z,103256.75
2023-02-05T02:36:31.223Z,103252.25
2023-02-05T02:39:24.212Z,103245.19
2023-02-05T02:42:16.576Z,103236.34
2023-02-05T02:45:09.649Z,103237.28
2023-02-05T02:48:00.856Z,103241.50
2023-02-05T02:50:53.058Z,103252.94
2023-02-05T02:53:45.064Z,103242.75
2023-02-05T02:56:34.604Z,103245.13
2023-02-05T02:59:25.825Z,103247.91
2023-02-05T03:02:15.925Z,103253.03
2023-02-05T03:05:05.938Z,103238.47
2023-02-05T03:07:57.618Z,103244.03
2023-02-05T03:10:49.136Z,103245.91
2023-02-05T03:13:35.868Z,103236.44
2023-02-05T03:16:24.479Z,103249.72
2023-02-05T03:19:13.585Z,103252.16
2023-02-05T03:22:04.616Z,103250.56
2023-02-05T03:24:52.437Z,103256.66
2023-02-05T03:27:40.155Z,103252.09
2023-02-05T03:30:33.284Z,103253.63
2023-02-05T03:33:31.721Z,103248.13
2023-02-05T03:36:27.430Z,103255.28
2023-02-05T03:39:27.811Z,103249.19
2023-02-05T03:42:28.297Z,103251.34
2023-02-05T03:45:22.645Z,103248.63
2023-02-05T03:48:36.561Z,103241.97
2023-02-05T03:51:32.994Z,103246.25
2023-02-05T03:54:28.539Z,103251.47
2023-02-05T03:57:22.402Z,103250.69
2023-02-05T04:00:11.395Z,103246.28
2023-02-05T04:03:00.583Z,103244.25
2023-02-05T04:05:51.221Z,103239.09
2023-02-05T04:08:40.894Z,103243.88
2023-02-05T04:11:28.271Z,103250.72
2023-02-05T04:14:15.544Z,103249.66
2023-02-05T04:17:03.570Z,103252.09
2023-02-05T04:19:50.127Z,103255.16
2023-02-05T04:22:39.819Z,103237.75
2023-02-05T04:25:27.941Z,103235.75
2023-02-05T04:28:20.123Z,103243.06
2023-02-05T04:31:08.640Z,103230.25
2023-02-05T04:33:55.907Z,103224.44
2023-02-05T04:36:42.641Z,103210.03
2023-02-05T04:39:29.322Z,103214.56
2023-02-05T04:42:17.115Z,103210.94
2023-02-05T04:45:05.968Z,103220.97
2023-02-05T04:47:52.663Z,103220.94
2023-02-05T04:50:39.245Z,103234.91
2023-02-05T04:53:25.766Z,103226.59
2023-02-05T04:56:14.414Z,103222.66
2023-02-05T04:59:02.404Z,103229.63
2023-02-05T05:01:48.931Z,103234.34
2023-02-05T05:04:35.662Z,103235.47
2023-02-05T05:07:22.455Z,103260.19
2023-02-05T05:10:10.030Z,103252.41
2023-02-05T05:12:56.673Z,103249.78
2023-02-05T05:15:45.091Z,103252.88
2023-02-05T05:18:32.148Z,103240.09
2023-02-05T05:21:18.694Z,103242.22
2023-02-05T05:24:05.937Z,103240.50
2023-02-05T05:26:52.485Z,103252.34
2023-02-05T05:29:39.226Z,103241.88
2023-02-05T05:32:27.003Z,103259.41
2023-02-05T05:35:13.739Z,103266.31
2023-02-05T05:38:01.174Z,103272.47
2023-02-05T05:41:06.164Z,103279.28
2023-02-05T05:43:53.864Z,103288.63
2023-02-05T05:46:40.569Z,103294.84
2023-02-05T05:49:28.479Z,103287.47
2023-02-05T05:52:15.359Z,103296.16
2023-02-05T05:55:01.994Z,103312.28
2023-02-05T05:57:48.598Z,103316.06
2023-02-05T06:00:35.900Z,103307.25
2023-02-05T06:03:23.976Z,103314.16
2023-02-05T06:06:13.470Z,103320.50
2023-02-05T06:09:00.141Z,103306.81
2023-02-05T06:11:46.844Z,103317.69
2023-02-05T06:14:33.878Z,103330.41
2023-02-05T06:17:21.522Z,103336.34
2023-02-05T06:20:08.572Z,103340.00
2023-02-05T06:22:56.630Z,103351.78
2023-02-05T06:25:43.118Z,103351.38
2023-02-05T06:28:29.697Z,103364.19
2023-02-05T06:31:17.413Z,103371.41
2023-02-05T06:34:04.184Z,103369.34
2023-02-05T06:36:50.900Z,103365.59
2023-02-05T06:39:38.934Z,103359.00
2023-02-05T06:42:25.720Z,103375.59
2023-02-05T06:45:12.482Z,103367.59
2023-02-05T06:47:59.084Z,103394.34
2023-02-05T06:50:45.659Z,103402.91
2023-02-05T06:53:32.275Z,103397.41
2023-02-05T06:56:20.202Z,103400.75
2023-02-05T06:59:07.073Z,103413.69
2023-02-05T07:01:53.855Z,103415.94
2023-02-05T07:04:40.238Z,103422.25
2023-02-05T07:07:27.157Z,103430.59
2023-02-05T07:10:13.804Z,103433.38
2023-02-05T07:13:01.760Z,103448.06
2023-02-05T07:15:49.752Z,103435.09
2023-02-05T07:18:36.531Z,103450.63
2023-02-05T07:21:22.851Z,103457.84
2023-02-05T07:24:09.880Z,103473.41
2023-02-05T07:26:56.888Z,103485.03
2023-02-05T07:29:44.640Z,103499.13
2023-02-05T07:32:31.228Z,103503.44
2023-02-05T07:35:17.880Z,103512.97
2023-02-05T07:38:04.642Z,103512.28
2023-02-05T07:40:51.121Z,103513.72
2023-02-05T07:43:37.795Z,103536.81
2023-02-05T07:46:25.686Z,103550.97
2023-02-05T07:49:12.336Z,103551.44
2023-02-05T07:51:58.982Z,103554.69
2023-02-05T07:54:45.384Z,103569.22
2023-02-05T07:57:31.913Z,103571.16
2023-02-05T08:00:18.902Z,103575.53
2023-02-05T08:03:06.793Z,103577.41
2023-02-05T08:05:53.308Z,103581.72
2023-02-05T08:08:40.073Z,103576.97
2023-02-05T08:11:26.674Z,103594.91
2023-02-05T08:14:16.660Z,103583.34
2023-02-05T08:17:03.293Z,103575.56
2023-02-05T08:19:51.463Z,103593.03
2023-02-05T08:22:40.600Z,103592.28
2023-02-05T08:25:27.328Z,103588.94
2023-02-05T08:28:14.121Z,103583.38
2023-02-05T08:31:00.748Z,103589.88
2023-02-05T08:33:47.896Z,103593.38
2023-02-05T08:36:35.723Z,103598.97
2023-02-05T08:39:22.368Z,103599.81
2023-02-05T08:42:09.062Z,103605.38
2023-02-05T08:44:58.350Z,103603.88
2023-02-05T08:47:45.098Z,103597.78
2023-02-05T08:50:31.721Z,103624.81
2023-02-05T08:53:19.485Z,103609.13
2023-02-05T08:56:06.960Z,103640.34
2023-02-05T08:58:53.363Z,103628.50
2023-02-05T09:01:40.850Z,103632.72
2023-02-05T09:04:27.607Z,103638.09
2023-02-05T09:07:14.128Z,103650.44
2023-02-05T09:10:01.929Z,103648.16
2023-02-05T09:12:48.746Z,103655.63
2023-02-05T09:15:35.712Z,103641.19
2023-02-05T09:18:22.491Z,103645.53
2023-02-05T09:21:10.853Z,103649.78
2023-02-05T09:23:58.223Z,103667.16
2023-02-05T09:26:46.227Z,103648.06
2023-02-05T09:29:32.665Z,103673.56
2023-02-05T09:32:19.271Z,103674.31
2023-02-05T09:35:06.101Z,103656.81
2023-02-05T09:37:52.368Z,103672.28
2023-02-05T09:40:44.227Z,103665.91
2023-02-05T09:43:45.230Z,103670.41
2023-02-05T09:46:42.742Z,103682.00
2023-02-05T09:49:31.479Z,103689.94
2023-02-05T09:52:22.937Z,103687.00
2023-02-05T09:55:20.430Z,103680.47
2023-02-05T09:58:12.466Z,103670.88
2023-02-05T10:01:03.736Z,103692.81
2023-02-05T10:03:56.101Z,103675.50
2023-02-05T10:07:01.992Z,103673.16
2023-02-05T10:10:16.205Z,103683.66
2023-02-05T10:13:32.570Z,103692.63
2023-02-05T10:16:37.150Z,103676.09
2023-02-05T10:19:47.724Z,103697.94
2023-02-05T10:22:46.847Z,103738.44
2023-02-05T10:25:45.809Z,103679.75
2023-02-05T10:28:54.991Z,103708.09
2023-02-05T10:31:44.833Z,103718.38
2023-02-05T10:34:47.404Z,103718.25
2023-02-05T10:37:42.824Z,103689.91
2023-02-05T10:40:34.720Z,103710.72
2023-02-05T10:43:26.618Z,103690.91
2023-02-05T10:46:15.022Z,103711.47
2023-02-05T10:49:09.812Z,103701.63
2023-02-05T10:51:56.572Z,103725.50
2023-02-05T10:54:43.710Z,103739.59
2023-02-05T10:57:37.598Z,103731.59
2023-02-05T11:00:24.529Z,103739.91
2023-02-05T11:03:19.206Z,103764.34
2023-02-05T11:06:10.998Z,103748.47
2023-02-05T11:08:57.690Z,103760.47
2023-02-05T11:11:44.412Z,103781.72
2023-02-05T11:14:35.188Z,103750.31
2023-02-05T11:17:24.435Z,103748.91
2023-02-05T11:20:29.803Z,103743.25
2023-02-05T11:23:20.650Z,103770.28
2023-02-05T11:26:17.642Z,103747.97
2023-02-05T11:29:21.078Z,103776.34
2023-02-05T11:32:19.979Z,103761.53
2023-02-05T11:35:17.232Z,103782.22
2023-02-05T11:38:10.154Z,103763.16
2023-02-05T11:41:00.326Z,103769.03
2023-02-05T11:43:50.109Z,103772.28
2023-02-05T11:46:45.555Z,103753.63
2023-02-05T11:49:35.847Z,103782.19
2023-02-05T11:52:26.203Z,103786.94
2023-02-05T11:55:26.522Z,103787.56
2023-02-05T11:58:36.261Z,103797.44
2023-02-05T12:01:25.989Z,103791.50
2023-02-05T12:04:20.067Z,103796.38
2023-02-05T12:07:16.100Z,103787.41
2023-02-05T12:10:02.902Z,103818.25
2023-02-05T12:13:02.567Z,103811.31
2023-02-05T12:16:01.510Z,103795.19
2023-02-05T12:18:57.760Z,103817.25
2023-02-05T12:21:54.669Z,103816.94
2023-02-05T12:25:00.506Z,103822.03
2023-02-05T12:28:05.863Z,103818.47
2023-02-05T12:31:05.917Z,103817.38
2023-02-05T12:34:10.059Z,103825.91
2023-02-05T12:37:13.167Z,103804.28
2023-02-05T12:40:08.677Z,103827.03
2023-02-05T12:43:01.968Z,103826.81
2023-02-05T12:45:58.714Z,103821.19
2023-02-05T12:49:01.691Z,103814.56
2023-02-05T12:52:01.941Z,103794.94
2023-02-05T12:54:59.704Z,103804.81
2023-02-05T12:57:50.918Z,103824.22
2023-02-05T13:00:42.519Z,103838.69
2023-02-05T13:03:38.271Z,103823.44
2023-02-05T13:06:31.342Z,103823.91
2023-02-05T13:09:23.866Z,103823.00
2023-02-05T13:12:14.800Z,103841.97
2023-02-05T13:15:08.327Z,103835.56
2023-02-05T13:18:00.488Z,103851.78
2023-02-05T13:21:08.370Z,103843.41
2023-02-05T13:24:23.179Z,103849.69
2023-02-05T13:27:38.764Z,103834.81
2023-02-05T13:30:29.463Z,103840.94
2023-02-05T13:33:16.077Z,103861.00
2023-02-05T13:36:29.174Z,103862.28
2023-02-05T13:39:34.670Z,103883.72
2023-02-05T13:42:45.644Z,103870.59
2023-02-05T13:45:53.786Z,103870.09
2023-02-05T13:49:15.919Z,103875.94
2023-02-05T13:52:29.600Z,103885.56
2023-02-05T13:55:43.530Z,103886.97
2023-02-05T13:58:33.300Z,103896.28
2023-02-05T14:01:25.032Z,103898.91
2023-02-05T14:04:21.866Z,103891.44
2023-02-05T14:07:26.942Z,103891.31
2023-02-05T14:10:28.820Z,103884.72
2023-02-05T14:13:23.928Z,103876.91
2023-02-05T14:16:36.374Z,103891.97
2023-02-05T14:19:26.525Z,103887.53
2023-02-05T14:22:33.052Z,103876.47
2023-02-05T14:26:02.247Z,103876.16
2023-02-05T14:28:53.811Z,103878.88
2023-02-05T14:31:49.483Z,103898.66
2023-02-05T14:34:58.709Z,103896.84
2023-02-05T14:37:48.318Z,103897.28
2023-02-05T14:40:36.312Z,103897.03
2023-02-05T14:43:28.276Z,103888.47
2023-02-05T14:46:30.360Z,103888.50
2023-02-05T14:49:24.647Z,103898.34
2023-02-05T14:52:27.359Z,103902.00
2023-02-05T14:55:21.100Z,103897.16
2023-02-05T14:58:11.678Z,103890.13
2023-02-05T15:01:13.040Z,103879.38
2023-02-05T15:04:03.832Z,103906.47
2023-02-05T15:06:51.807Z,103894.84
2023-02-05T15:09:43.001Z,103901.31
2023-02-05T15:12:42.521Z,103908.81
2023-02-05T15:15:34.376Z,103918.25
2023-02-05T15:18:25.258Z,103902.75
2023-02-05T15:21:17.770Z,103926.38
2023-02-05T15:24:14.853Z,103927.09
2023-02-05T15:27:04.925Z,103928.41
2023-02-05T15:29:57.278Z,103924.00
2023-02-05T15:32:49.558Z,103921.50
2023-02-05T15:35:37.657Z,103930.72
2023-02-05T15:38:33.705Z,103934.56
2023-02-05T15:41:22.769Z,103934.13
2023-02-05T15:44:21.267Z,103945.50
2023-02-05T15:47:15.360Z,103949.06
2023-02-05T15:50:03.572Z,103959.66
2023-02-05T15:52:50.236Z,103963.25
2023-02-05T15:55:39.382Z,103965.53
2023-02-05T15:58:27.693Z,103986.81
2023-02-05T16:01:24.430Z,103973.06
2023-02-05T16:04:18.830Z,103985.72
2023-02-05T16:07:18.790Z,104004.84
2023-02-05T16:10:17.556Z,103990.53
2023-02-05T16:13:07.562Z,103978.28
2023-02-05T16:16:01.139Z,103992.09
2023-02-05T16:18:52.411Z,103985.19
2023-02-05T16:21:45.069Z,103963.69
2023-02-05T16:24:34.705Z,103969.09
2023-02-05T16:27:27.142Z,103987.31
2023-02-05T16:30:20.763Z,103987.22
2023-02-05T16:33:13.589Z,103989.81
2023-02-05T16:36:02.913Z,103984.13
2023-02-05T16:38:54.657Z,103986.44
2023-02-05T16:41:44.360Z,103982.78
2023-02-05T16:44:33.970Z,103983.81
2023-02-05T16:47:21.817Z,103985.84
2023-02-05T16:50:38.169Z,103982.69
2023-02-05T16:53:26.838Z,103990.19
2023-02-05T16:56:20.471Z,103991.06
2023-02-05T16:59:07.332Z,103989.88
2023-02-05T17:01:54.615Z,103980.75
2023-02-05T17:04:42.851Z,103983.34
2023-02-05T17:07:30.967Z,103997.63
2023-02-05T17:10:21.754Z,103995.09
2023-02-05T17:13:28.373Z,104007.16
2023-02-05T17:16:29.844Z,104000.16
2023-02-05T17:19:24.994Z,104009.94
2023-02-05T17:22:20.991Z,104020.41
2023-02-05T17:25:08.290Z,104024.31
2023-02-05T17:27:55.240Z,104018.47
2023-02-05T17:30:42.896Z,104029.69
2023-02-05T17:33:29.873Z,104022.06
2023-02-05T17:36:18.006Z,104008.22
2023-02-05T17:39:06.090Z,104014.31
2023-02-05T17:42:07.465Z,104019.94
2023-02-05T17:44:54.520Z,104027.53
2023-02-05T17:47:41.690Z,104026.97
2023-02-05T17:50:28.517Z,104013.72
2023-02-05T17:53:14.934Z,104024.50
2023-02-05T17:56:03.026Z,104021.63
2023-02-05T17:58:51.201Z,104018.91
2023-02-05T18:01:37.867Z,104006.09
2023-02-05T18:04:25.117Z,104001.13
2023-02-05T18:07:21.089Z,104002.97
2023-02-05T18:10:11.443Z,104000.22
2023-02-05T18:12:59.528Z,104001.78
2023-02-05T18:15:46.292Z,104003.66
2023-02-05T18:18:34.201Z,104018.00
2023-02-05T18:21:21.500Z,104020.25
2023-02-05T18:24:08.006Z,104025.22
2023-02-05T18:26:54.649Z,104013.00
2023-02-05T18:29:43.893Z,104021.16
2023-02-05T18:32:31.034Z,104024.09
2023-02-05T18:35:17.995Z,104026.53
2023-02-05T18:38:04.871Z,104036.53
2023-02-05T18:40:51.704Z,104030.06
2023-02-05T18:43:39.082Z,104020.78
2023-02-05T18:46:29.093Z,104033.53
2023-02-05T18:49:15.852Z,104027.91
2023-02-05T18:52:02.540Z,104032.63
2023-02-05T18:54:49.464Z,104034.44
2023-02-05T18:57:36.369Z,104035.84
2023-02-05T19:00:23.495Z,104047.47
2023-02-05T19:03:11.398Z,104061.56
2023-02-05T19:05:58.170Z,104053.53
2023-02-05T19:08:45.365Z,104054.75
2023-02-05T19:11:33.968Z,104039.09
2023-02-05T19:14:22.576Z,104033.25
2023-02-05T19:17:09.470Z,104033.78
2023-02-05T19:19:58.600Z,104023.94
2023-02-05T19:22:45.969Z,104033.78
2023-02-05T19:25:32.505Z,104034.88
2023-02-05T19:28:19.408Z,104045.28
2023-02-05T19:31:08.314Z,104049.91
2023-02-05T19:33:56.211Z,104036.06
2023-02-05T19:36:43.991Z,104019.31
2023-02-05T19:39:30.922Z,104011.81
2023-02-05T19:42:17.446Z,104012.84
2023-02-05T19:45:04.453Z,104009.34
2023-02-05T19:47:51.494Z,104022.06
2023-02-05T19:50:38.083Z,104037.56
2023-02-05T19:53:25.990Z,104027.03
2023-02-05T19:56:14.751Z,104020.69
2023-02-05T19:59:01.616Z,104013.22
2023-02-05T20:01:49.730Z,104030.84
2023-02-05T20:04:36.347Z,104019.47
2023-02-05T20:07:23.208Z,104024.81
2023-02-05T20:10:11.370Z,104011.97
2023-02-05T20:13:00.436Z,104013.66
2023-02-05T20:15:47.088Z,104003.28
2023-02-05T20:18:34.117Z,103998.59
2023-02-05T20:21:20.619Z,103999.47
2023-02-05T20:24:08.317Z,104002.78
2023-02-05T20:26:57.349Z,104007.81
2023-02-05T20:30:02.020Z,104015.13
2023-02-05T20:32:48.698Z,104011.06
2023-02-05T20:35:36.126Z,104006.25
2023-02-05T20:38:22.522Z,104015.22
2023-02-05T20:41:13.150Z,104024.53
2023-02-05T20:44:00.940Z,104018.94
2023-02-05T20:46:47.966Z,104013.28
2023-02-05T20:49:35.845Z,104027.91
2023-02-05T20:52:22.519Z,104022.22
2023-02-05T20:55:09.539Z,104029.25
2023-02-05T20:57:56.293Z,104038.31
2023-02-05T21:00:44.604Z,104036.69
2023-02-05T21:03:31.308Z,104039.25
2023-02-05T21:06:18.934Z,104038.69
2023-02-05T21:09:07.238Z,104034.22
2023-02-05T21:11:55.411Z,104036.06
2023-02-05T21:14:42.065Z,104031.63
2023-02-05T21:17:29.963Z,104024.50
2023-02-05T21:20:17.363Z,104038.25
2023-02-05T21:23:03.900Z,104035.31
2023-02-05T21:25:51.563Z,104030.94
2023-02-05T21:28:37.899Z,104034.94
2023-02-05T21:31:25.541Z,104035.56
2023-02-05T21:34:15.550Z,104030.59
2023-02-05T21:37:01.922Z,104030.41
2023-02-05T21:39:50.874Z,104045.41
2023-02-05T21:42:39.384Z,104031.47
2023-02-05T21:45:26.343Z,104043.97
2023-02-05T21:48:14.225Z,104041.47
2023-02-05T21:51:06.649Z,104052.41
2023-02-05T21:53:58.773Z,104055.88
2023-02-05T21:56:45.686Z,104052.66
2023-02-05T21:59:32.438Z,104055.97
2023-02-05T22:02:19.160Z,104070.84
2023-02-05T22:05:07.078Z,104074.22
2023-02-05T22:07:55.456Z,104076.13
2023-02-05T22:10:42.116Z,104077.88
2023-02-05T22:13:32.108Z,104086.31
2023-02-05T22:16:20.790Z,104070.00
2023-02-05T22:19:07.952Z,104069.84
2023-02-05T22:21:55.242Z,104072.63
2023-02-05T22:24:43.652Z,104067.25
2023-02-05T22:27:30.868Z,104068.78
2023-02-05T22:30:17.751Z,104078.00
2023-02-05T22:33:04.406Z,104081.25
2023-02-05T22:35:52.850Z,104103.19
2023-02-05T22:38:42.446Z,104091.00
2023-02-05T22:41:33.378Z,104090.91
2023-02-05T22:44:20.454Z,104071.53
2023-02-05T22:47:06.893Z,104065.69
2023-02-05T22:49:53.579Z,104063.16
2023-02-05T22:52:40.237Z,104053.69
2023-02-05T22:55:26.975Z,104056.00
2023-02-05T22:58:15.020Z,104054.31
2023-02-05T23:04:38.683Z,104033.28
2023-02-05T23:07:25.238Z,104033.06
2023-02-05T23:10:11.885Z,104024.13
2023-02-05T23:12:58.901Z,104021.25
2023-02-05T23:15:46.768Z,104022.78
2023-02-05T23:18:33.195Z,104018.41
2023-02-05T23:21:22.884Z,104026.38
2023-02-05T23:24:10.047Z,104026.75
2023-02-05T23:26:56.490Z,104031.91
2023-02-05T23:29:43.059Z,104040.91
2023-02-05T23:32:30.992Z,104036.91
2023-02-05T23:35:17.615Z,104033.75
2023-02-05T23:38:04.056Z,104033.09
2023-02-05T23:40:50.868Z,104030.19
2023-02-05T23:43:38.246Z,104034.94
2023-02-05T23:46:24.844Z,104020.31
2023-02-05T23:49:13.560Z,104027.94
2023-02-05T23:52:00.070Z,104037.59
2023-02-05T23:54:46.573Z,104041.31
2023-02-05T23:57:33.558Z,104043.88
